Time;durP1;ratioP1;P1;durP2;ratioP2;P2;SDS_P1;SDS_P2;PMS_P1;PMS_P2;Temp;Humidity;BMP_temperature;BMP_pressure;BME280_temperature;BME280_humidity;BME280_pressure;Samples;Min_cycle;Max_cycle;Signal;HPM_P1;HPM_P2
2023/06/04 00:00:24;;;;;;;5.32;2.55;;;12.40;56.80;;;;;;5019647;28;20049;-76
2023/06/04 00:02:50;;;;;;;2.50;1.73;;;12.30;57.80;;;;;;5004237;28;20034;-76
2023/06/04 00:05:16;;;;;;;3.90;2.38;;;12.20;57.80;;;;;;5024302;28;20478;-76
2023/06/04 00:07:41;;;;;;;4.97;2.00;;;12.10;57.80;;;;;;5004795;28;20038;-76
2023/06/04 00:10:07;;;;;;;3.47;2.28;;;12.10;58.80;;;;;;5005764;28;20080;-76
2023/06/04 00:12:33;;;;;;;4.55;2.28;;;12.10;57.90;;;;;;5004321;28;20082;-76
2023/06/04 00:14:58;;;;;;;4.35;2.05;;;12.00;56.90;;;;;;4978855;28;20120;-78
2023/06/04 00:17:24;;;;;;;2.78;1.98;;;11.90;56.30;;;;;;5001290;28;20080;-78
2023/06/04 00:19:50;;;;;;;5.72;1.92;;;11.80;57.40;;;;;;5022917;28;20121;-77
2023/06/04 00:22:15;;;;;;;3.78;1.90;;;11.80;57.60;;;;;;5019921;28;20111;-77
2023/06/04 00:24:41;;;;;;;2.97;1.85;;;11.80;58.10;;;;;;5007006;28;20026;-77
2023/06/04 00:27:07;;;;;;;6.68;2.55;;;11.80;58.10;;;;;;5012507;28;20552;-78
2023/06/04 00:29:33;;;;;;;3.72;2.40;;;11.80;57.30;;;;;;5022025;28;20029;-78
2023/06/04 00:31:59;;;;;;;4.13;2.35;;;11.70;58.20;;;;;;5020165;28;20074;-78
2023/06/04 00:34:24;;;;;;;4.20;1.92;;;11.80;57.50;;;;;;5004131;28;20493;-79
2023/06/04 00:36:50;;;;;;;3.70;2.28;;;11.80;57.40;;;;;;5004735;28;20420;-78
2023/06/04 00:39:16;;;;;;;4.50;2.13;;;11.60;58.00;;;;;;5017985;28;20117;-78
2023/06/04 00:41:41;;;;;;;3.47;1.95;;;11.50;57.90;;;;;;5006351;28;20040;-79
2023/06/04 00:44:07;;;;;;;6.65;2.33;;;11.50;57.90;;;;;;4999559;28;20033;-78
2023/06/04 00:46:32;;;;;;;5.88;2.40;;;11.60;58.40;;;;;;5006982;28;20793;-79
2023/06/04 00:48:58;;;;;;;4.78;2.63;;;11.40;58.60;;;;;;5007137;28;20030;-79
2023/06/04 00:51:24;;;;;;;3.97;2.50;;;11.40;58.30;;;;;;5007971;28;20091;-79
2023/06/04 00:53:55;;;;;;;3.53;1.65;;;11.30;59.30;;;;;;4987668;28;20049;-79
2023/06/04 00:56:20;;;;;;;3.25;2.22;;;11.30;58.30;;;;;;5004829;28;20466;-79
2023/06/04 00:58:46;;;;;;;3.33;2.25;;;11.30;60.30;;;;;;5006217;28;20026;-78
2023/06/04 01:01:26;;;;;;;2.38;1.67;;;11.20;58.90;;;;;;5019114;28;20033;-79
2023/06/04 01:03:53;;;;;;;3.97;1.60;;;11.20;59.20;;;;;;5023438;28;20544;-79
2023/06/04 01:06:35;;;;;;;3.25;1.63;;;11.00;59.30;;;;;;5005917;28;20052;-79
2023/06/04 01:09:03;;;;;;;3.38;1.70;;;11.10;59.40;;;;;;5018755;28;20037;-78
2023/06/04 01:11:36;;;;;;;4.72;2.00;;;11.00;59.70;;;;;;4987084;28;20029;-77
2023/06/04 01:14:02;;;;;;;3.35;1.65;;;11.00;59.90;;;;;;5018248;28;20040;-78
2023/06/04 01:16:31;;;;;;;2.65;1.92;;;10.80;60.20;;;;;;5022864;28;20034;-78
2023/06/04 01:18:59;;;;;;;3.95;2.08;;;10.90;60.80;;;;;;4998030;28;20037;-78
2023/06/04 01:21:26;;;;;;;6.43;2.20;;;10.80;60.20;;;;;;5010859;28;20367;-78
2023/06/04 01:24:01;;;;;;;3.10;2.17;;;11.00;60.40;;;;;;5000634;28;20532;-78
2023/06/04 01:26:30;;;;;;;3.65;2.00;;;10.80;61.50;;;;;;5009409;28;20029;-78
2023/06/04 01:28:56;;;;;;;2.83;1.73;;;10.80;63.00;;;;;;5006711;28;20096;-78
2023/06/04 01:31:22;;;;;;;6.35;2.03;;;10.80;65.10;;;;;;5005139;28;20393;-78
2023/06/04 01:33:55;;;;;;;2.95;2.65;;;10.80;62.70;;;;;;4991478;28;20548;-77
2023/06/04 01:36:21;;;;;;;4.60;1.90;;;10.80;61.10;;;;;;5024419;28;20030;-79
2023/06/04 01:38:47;;;;;;;5.03;2.00;;;10.70;62.60;;;;;;5023759;28;20029;-78
2023/06/04 01:41:12;;;;;;;6.05;2.33;;;10.60;64.00;;;;;;5027141;28;20033;-79
2023/06/04 01:43:38;;;;;;;4.53;2.20;;;10.60;65.50;;;;;;5007557;28;20030;-78
2023/06/04 01:46:03;;;;;;;5.78;2.50;;;10.60;64.00;;;;;;5008668;28;20069;-78
2023/06/04 01:48:29;;;;;;;3.15;1.92;;;10.50;63.80;;;;;;5026254;28;20128;-78
2023/06/04 01:50:56;;;;;;;3.65;2.28;;;10.50;65.80;;;;;;5023888;28;20033;-78
2023/06/04 01:53:21;;;;;;;4.30;2.20;;;10.50;67.10;;;;;;5026292;28;20025;-79
2023/06/04 01:55:49;;;;;;;8.20;2.20;;;10.50;68.50;;;;;;5009580;28;20649;-78
2023/06/04 01:58:17;;;;;;;4.88;2.05;;;10.50;65.80;;;;;;5010242;28;20030;-78
2023/06/04 02:00:43;;;;;;;4.90;2.25;;;10.50;66.90;;;;;;5009499;28;20033;-78
2023/06/04 02:03:10;;;;;;;5.05;2.38;;;10.40;66.90;;;;;;5006060;28;20060;-78
2023/06/04 02:05:38;;;;;;;5.78;2.72;;;10.40;67.80;;;;;;5004673;28;20496;-79
2023/06/04 02:08:04;;;;;;;5.95;2.38;;;10.40;66.20;;;;;;5006968;28;20056;-78
2023/06/04 02:10:30;;;;;;;5.82;2.55;;;10.30;65.00;;;;;;5019288;28;20520;-79
2023/06/04 02:13:00;;;;;;;6.07;2.47;;;10.30;66.70;;;;;;5022475;28;20033;-78
2023/06/04 02:15:26;;;;;;;4.72;2.38;;;10.20;65.70;;;;;;5023380;28;20033;-78
2023/06/04 02:17:58;;;;;;;3.60;2.15;;;10.10;64.60;;;;;;5025927;28;20036;-77
2023/06/04 02:20:23;;;;;;;3.88;2.38;;;10.10;64.80;;;;;;5025723;28;20053;-77
2023/06/04 02:22:49;;;;;;;3.45;2.08;;;10.10;65.70;;;;;;5025067;28;20345;-78
2023/06/04 02:25:15;;;;;;;5.35;2.50;;;9.90;69.10;;;;;;5026329;28;20033;-77
2023/06/04 02:27:40;;;;;;;4.30;2.10;;;9.90;70.40;;;;;;5023847;28;20405;-78
2023/06/04 02:30:07;;;;;;;6.32;2.75;;;9.80;70.60;;;;;;5009093;28;20036;-75
2023/06/04 02:32:33;;;;;;;4.60;2.50;;;9.80;68.50;;;;;;5007145;28;20040;-75
2023/06/04 02:34:59;;;;;;;7.10;2.42;;;9.70;69.10;;;;;;5021969;28;20030;-76
2023/06/04 02:37:25;;;;;;;3.88;2.38;;;9.60;71.30;;;;;;4988412;28;20720;-76
2023/06/04 02:39:50;;;;;;;4.05;2.60;;;9.60;69.80;;;;;;5008548;28;20025;-76
2023/06/04 02:42:16;;;;;;;5.60;2.40;;;9.50;72.10;;;;;;5006466;28;20095;-75
2023/06/04 02:44:41;;;;;;;4.25;2.15;;;9.40;74.20;;;;;;5015637;28;20087;-76
2023/06/04 02:47:07;;;;;;;2.80;2.03;;;9.40;74.90;;;;;;5022550;28;20075;-76
2023/06/04 02:49:35;;;;;;;6.13;2.33;;;9.40;75.30;;;;;;5005831;28;20025;-77
2023/06/04 02:52:00;;;;;;;4.22;2.28;;;9.30;76.20;;;;;;5009259;28;20087;-77
2023/06/04 02:54:26;;;;;;;5.97;2.03;;;9.30;72.70;;;;;;5009412;28;20567;-76
2023/06/04 02:56:53;;;;;;;2.65;1.90;;;9.30;76.50;;;;;;4994036;28;20045;-76
2023/06/04 02:59:19;;;;;;;2.92;2.20;;;9.30;76.30;;;;;;5004157;28;20667;-76
2023/06/04 03:01:44;;;;;;;6.20;1.95;;;9.20;76.70;;;;;;5006998;28;20116;-77
2023/06/04 03:04:14;;;;;;;4.63;1.80;;;9.10;77.50;;;;;;4998675;28;20022;-76
2023/06/04 03:06:44;;;;;;;4.55;2.00;;;9.10;79.00;;;;;;5006602;28;20112;-75
2023/06/04 03:09:10;;;;;;;5.63;2.53;;;9.10;78.00;;;;;;5025486;28;20030;-75
2023/06/04 03:11:36;;;;;;;6.18;2.05;;;9.10;81.50;;;;;;5023727;28;20061;-75
2023/06/04 03:14:02;;;;;;;4.13;2.20;;;9.10;77.00;;;;;;5021646;28;20588;-75
2023/06/04 03:16:27;;;;;;;4.13;2.42;;;9.30;77.00;;;;;;5007150;28;20095;-76
2023/06/04 03:18:53;;;;;;;5.80;2.55;;;9.20;80.00;;;;;;5019455;28;20436;-76
2023/06/04 03:21:18;;;;;;;4.93;2.30;;;9.20;73.30;;;;;;5025372;28;20030;-76
2023/06/04 03:23:44;;;;;;;7.55;1.92;;;9.40;71.40;;;;;;5021938;28;20479;-76
2023/06/04 03:26:12;;;;;;;5.50;2.15;;;9.30;74.50;;;;;;4990757;28;20087;-76
2023/06/04 03:28:38;;;;;;;3.83;2.47;;;9.10;76.50;;;;;;5021574;28;20030;-76
2023/06/04 03:31:03;;;;;;;4.47;2.58;;;9.10;78.60;;;;;;5004700;28;20034;-74
2023/06/04 03:33:29;;;;;;;4.97;2.45;;;9.00;78.30;;;;;;5005244;28;20033;-76
2023/06/04 03:35:58;;;;;;;2.55;2.00;;;9.00;79.80;;;;;;5018286;28;20033;-77
2023/06/04 03:38:27;;;;;;;3.50;2.08;;;9.20;68.90;;;;;;5023278;28;20511;-76
2023/06/04 03:40:52;;;;;;;2.78;2.30;;;9.30;68.10;;;;;;5004419;28;20053;-76
2023/06/04 03:43:19;;;;;;;4.95;2.88;;;9.40;66.30;;;;;;5005678;28;20076;-75
2023/06/04 03:45:45;;;;;;;3.75;2.10;;;9.30;70.70;;;;;;5018982;28;20029;-75
2023/06/04 03:48:10;;;;;;;4.32;2.60;;;9.20;67.40;;;;;;5006373;28;20052;-76
2023/06/04 03:50:36;;;;;;;3.55;2.22;;;9.30;66.20;;;;;;5006106;28;20064;-75
2023/06/04 03:53:04;;;;;;;8.95;3.55;;;9.20;65.80;;;;;;5024041;28;20057;-76
2023/06/04 03:55:31;;;;;;;5.43;2.88;;;9.30;67.50;;;;;;4991607;28;20037;-76
2023/06/04 03:57:57;;;;;;;6.38;3.00;;;9.30;65.90;;;;;;5005405;28;20053;-77
2023/06/04 04:00:23;;;;;;;7.40;3.95;;;9.10;75.10;;;;;;4999458;28;20572;-76
2023/06/04 04:02:49;;;;;;;4.47;3.40;;;8.80;80.20;;;;;;5021168;28;20113;-76
2023/06/04 04:05:15;;;;;;;3.72;2.30;;;9.00;70.20;;;;;;4990059;28;20037;-76
2023/06/04 04:07:40;;;;;;;5.80;3.28;;;9.30;69.80;;;;;;5023342;28;20041;-75
2023/06/04 04:10:06;;;;;;;4.75;3.00;;;9.40;68.00;;;;;;5023887;28;20388;-75
2023/06/04 04:12:32;;;;;;;5.85;3.33;;;9.50;67.40;;;;;;5003394;28;20588;-75
2023/06/04 04:14:58;;;;;;;5.75;3.17;;;9.60;67.10;;;;;;5022873;28;20057;-76
2023/06/04 04:17:24;;;;;;;3.40;2.65;;;9.60;73.20;;;;;;5008184;28;20030;-76
2023/06/04 04:19:49;;;;;;;3.70;2.47;;;9.60;77.10;;;;;;5018344;28;20034;-78
2023/06/04 04:22:17;;;;;;;3.88;2.88;;;9.70;79.60;;;;;;4998714;28;20463;-78
2023/06/04 04:24:43;;;;;;;5.97;2.83;;;9.80;85.50;;;;;;5005206;28;20028;-78
2023/06/04 04:27:10;;;;;;;7.68;2.92;;;10.00;85.20;;;;;;5018094;28;20037;-78
2023/06/04 04:29:36;;;;;;;4.80;2.95;;;10.20;78.30;;;;;;5023712;28;20029;-77
2023/06/04 04:32:10;;;;;;;6.85;2.67;;;10.30;71.50;;;;;;5021063;28;20397;-77
2023/06/04 04:34:37;;;;;;;4.78;3.22;;;10.40;70.50;;;;;;4990744;28;20516;-77
2023/06/04 04:37:03;;;;;;;3.83;2.60;;;10.60;69.50;;;;;;5006138;28;20057;-77
2023/06/04 04:39:28;;;;;;;6.85;2.97;;;10.80;69.50;;;;;;5003425;28;20053;-78
2023/06/04 04:41:55;;;;;;;7.38;2.90;;;10.90;69.80;;;;;;5022456;28;20121;-77
2023/06/04 04:44:20;;;;;;;5.45;3.20;;;11.10;70.80;;;;;;5024057;28;20045;-77
2023/06/04 04:46:47;;;;;;;5.28;2.53;;;11.30;71.10;;;;;;5022787;28;20493;-77
2023/06/04 04:49:13;;;;;;;4.20;2.33;;;11.50;70.30;;;;;;5001338;28;20041;-77
2023/06/04 04:51:38;;;;;;;4.85;2.20;;;11.70;70.40;;;;;;5021319;28;20469;-77
2023/06/04 04:54:04;;;;;;;4.13;2.53;;;11.90;70.00;;;;;;5022365;28;20034;-77
2023/06/04 04:56:32;;;;;;;4.35;2.45;;;12.20;69.90;;;;;;5006934;28;20037;-77
2023/06/04 04:58:58;;;;;;;9.40;2.78;;;12.40;70.30;;;;;;5019780;28;20440;-78
2023/06/04 05:01:25;;;;;;;3.92;2.30;;;12.60;71.20;;;;;;5015049;28;20030;-77
2023/06/04 05:03:51;;;;;;;5.25;2.38;;;12.80;71.40;;;;;;5017978;28;20470;-77
2023/06/04 05:06:17;;;;;;;4.53;2.75;;;13.00;70.90;;;;;;5010532;28;20038;-77
2023/06/04 05:08:42;;;;;;;7.68;2.63;;;13.30;72.10;;;;;;5004461;28;20030;-75
2023/06/04 05:11:08;;;;;;;3.58;2.47;;;13.50;71.60;;;;;;5009619;28;20033;-75
2023/06/04 05:13:34;;;;;;;2.90;2.20;;;13.70;71.20;;;;;;5026873;28;20068;-75
2023/06/04 05:16:06;;;;;;;2.85;2.42;;;14.00;71.20;;;;;;5022477;28;20060;-75
2023/06/04 05:18:33;;;;;;;4.90;2.20;;;14.20;71.30;;;;;;5009947;28;20378;-74
2023/06/04 05:21:00;;;;;;;4.78;2.42;;;14.50;71.00;;;;;;5024955;28;20030;-75
2023/06/04 05:23:30;;;;;;;7.53;3.17;;;14.70;70.60;;;;;;5006839;28;20370;-74
2023/06/04 05:25:55;;;;;;;3.72;2.60;;;14.90;69.00;;;;;;5024029;28;20126;-75
2023/06/04 05:28:24;;;;;;;2.90;2.17;;;15.10;67.70;;;;;;5007464;28;20145;-75
2023/06/04 05:30:49;;;;;;;3.22;2.53;;;15.40;68.40;;;;;;5006255;28;20520;-75
2023/06/04 05:33:18;;;;;;;5.28;2.55;;;15.50;68.20;;;;;;5009534;28;20068;-78
2023/06/04 05:35:49;;;;;;;6.53;2.75;;;15.80;67.60;;;;;;5006522;28;20048;-79
2023/06/04 05:38:25;;;;;;;4.50;2.97;;;16.00;67.40;;;;;;5027224;28;20112;-78
2023/06/04 05:40:52;;;;;;;;;;;16.30;67.40;;;;;;5026488;28;20087;-78
2023/06/04 05:43:17;;;;;;;;;;;16.50;67.00;;;;;;5025253;28;20019;-77
2023/06/04 05:45:43;;;;;;;3.70;3.10;;;16.80;67.00;;;;;;5020452;28;20035;-77
2023/06/04 05:48:08;;;;;;;2.63;2.25;;;17.00;66.70;;;;;;5007818;28;20033;-77
2023/06/04 05:50:34;;;;;;;4.55;2.92;;;17.20;66.50;;;;;;5021150;28;20588;-77
2023/06/04 05:53:00;;;;;;;5.18;2.22;;;17.50;66.30;;;;;;5010267;28;20043;-76
2023/06/04 05:55:25;;;;;;;6.57;2.20;;;17.70;66.10;;;;;;5010839;28;20029;-78
2023/06/04 05:57:51;;;;;;;5.35;2.55;;;17.90;65.70;;;;;;5021845;28;20056;-79
2023/06/04 06:00:18;;;;;;;3.40;2.20;;;18.10;65.30;;;;;;5008291;28;20045;-79
2023/06/04 06:02:45;;;;;;;5.75;2.33;;;18.40;65.00;;;;;;5009246;28;20033;-79
2023/06/04 06:05:10;;;;;;;5.68;2.55;;;18.60;64.70;;;;;;5030523;28;20037;-79
2023/06/04 06:07:36;;;;;;;6.40;2.22;;;18.80;64.20;;;;;;5003388;28;20026;-78
2023/06/04 06:10:02;;;;;;;3.08;2.75;;;19.00;63.80;;;;;;5007014;28;20026;-78
2023/06/04 06:12:28;;;;;;;3.72;2.28;;;19.30;63.30;;;;;;5005391;28;20037;-78
2023/06/04 06:14:54;;;;;;;2.58;2.08;;;19.50;62.60;;;;;;5007083;28;20477;-77
2023/06/04 06:17:19;;;;;;;4.95;2.25;;;19.70;62.50;;;;;;5025987;28;20040;-80
2023/06/04 06:19:45;;;;;;;3.17;2.08;;;19.90;61.20;;;;;;5023374;28;20025;-78
2023/06/04 06:22:11;;;;;;;3.25;2.40;;;20.10;60.50;;;;;;5024739;28;20033;-79
2023/06/04 06:24:37;;;;;;;5.65;2.95;;;20.40;59.60;;;;;;5009673;28;20994;-77
2023/06/04 06:27:03;;;;;;;4.82;1.90;;;20.50;59.20;;;;;;5026111;28;20029;-77
2023/06/04 06:29:28;;;;;;;5.88;1.90;;;20.70;59.00;;;;;;5007885;28;20390;-78
2023/06/04 06:31:54;;;;;;;6.03;2.13;;;20.90;58.30;;;;;;5003034;28;20477;-78
2023/06/04 06:34:20;;;;;;;5.90;2.05;;;21.00;58.50;;;;;;5019483;28;20438;-79
2023/06/04 06:36:46;;;;;;;4.55;2.05;;;21.20;58.00;;;;;;5008740;28;20022;-78
2023/06/04 06:39:12;;;;;;;5.65;2.03;;;21.40;57.60;;;;;;5005854;28;20124;-77
2023/06/04 06:41:40;;;;;;;5.05;2.47;;;21.50;58.20;;;;;;5024019;28;20029;-77
2023/06/04 06:44:06;;;;;;;3.10;1.70;;;21.70;57.50;;;;;;5023802;28;20018;-76
2023/06/04 06:46:32;;;;;;;4.72;2.05;;;21.90;57.60;;;;;;5022430;28;20397;-77
2023/06/04 06:48:57;;;;;;;4.35;2.08;;;22.00;57.10;;;;;;5005273;28;20040;-78
2023/06/04 06:51:23;;;;;;;5.70;1.98;;;22.20;56.90;;;;;;4991198;28;20044;-77
2023/06/04 06:53:51;;;;;;;3.45;2.30;;;22.40;55.90;;;;;;5003375;28;20078;-77
2023/06/04 06:56:18;;;;;;;3.45;1.58;;;22.60;55.60;;;;;;5005436;28;20552;-78
2023/06/04 06:58:44;;;;;;;2.30;1.92;;;22.80;55.30;;;;;;5020293;28;20061;-78
2023/06/04 07:01:09;;;;;;;3.88;1.88;;;22.90;55.00;;;;;;5021724;28;20454;-77
2023/06/04 07:03:35;;;;;;;2.45;1.85;;;23.00;54.70;;;;;;5003789;28;20036;-78
2023/06/04 07:06:00;;;;;;;3.33;1.77;;;23.20;54.20;;;;;;5012001;28;20041;-78
2023/06/04 07:08:26;;;;;;;2.30;1.45;;;23.40;53.80;;;;;;5024766;28;20734;-78
2023/06/04 07:10:52;;;;;;;5.22;1.92;;;23.50;53.70;;;;;;5004483;28;20626;-78
2023/06/04 07:13:17;;;;;;;3.28;1.50;;;23.60;54.50;;;;;;5021964;28;20403;-78
2023/06/04 07:15:43;;;;;;;2.25;1.80;;;23.80;53.60;;;;;;5022517;28;20044;-77
2023/06/04 07:18:09;;;;;;;2.33;1.58;;;24.00;53.00;;;;;;5002964;28;20099;-77
2023/06/04 07:20:35;;;;;;;2.10;1.67;;;24.10;52.90;;;;;;5008716;28;20025;-78
2023/06/04 07:23:01;;;;;;;1.80;1.65;;;24.20;53.00;;;;;;5003679;28;20041;-78
2023/06/04 07:25:26;;;;;;;2.25;1.63;;;24.50;52.50;;;;;;5008484;28;20029;-78
2023/06/04 07:27:52;;;;;;;3.58;1.60;;;24.70;52.20;;;;;;5021535;28;20163;-78
2023/06/04 07:30:18;;;;;;;3.20;1.67;;;24.80;52.20;;;;;;4991878;28;20064;-78
2023/06/04 07:32:52;;;;;;;2.85;1.73;;;25.10;51.60;;;;;;5008539;28;20692;-78
2023/06/04 07:35:18;;;;;;;1.55;1.42;;;25.20;50.70;;;;;;5007223;28;20033;-78
2023/06/04 07:37:48;;;;;;;1.92;1.23;;;25.30;51.00;;;;;;5025542;28;20036;-78
2023/06/04 07:40:14;;;;;;;4.00;1.58;;;25.30;50.90;;;;;;5007799;28;20041;-77
2023/06/04 07:42:40;;;;;;;5.40;1.55;;;25.40;51.30;;;;;;5022975;28;20266;-76
2023/06/04 07:45:06;;;;;;;5.63;1.83;;;25.80;50.80;;;;;;5021478;28;20033;-76
2023/06/04 07:47:32;;;;;;;1.58;1.40;;;26.00;49.10;;;;;;4990830;28;20477;-77
2023/06/04 07:49:58;;;;;;;3.83;1.30;;;26.00;49.40;;;;;;5020993;28;20025;-79
2023/06/04 07:52:23;;;;;;;2.88;1.95;;;26.10;49.80;;;;;;5004817;28;20026;-76
2023/06/04 07:54:49;;;;;;;1.65;1.55;;;26.30;49.10;;;;;;5017602;28;20436;-76
2023/06/04 07:57:14;;;;;;;4.63;1.63;;;26.50;47.90;;;;;;5005657;28;20541;-76
2023/06/04 07:59:40;;;;;;;2.65;1.90;;;26.60;47.50;;;;;;5005433;28;20087;-76
2023/06/04 08:02:05;;;;;;;3.03;1.77;;;26.70;47.80;;;;;;5001734;28;20030;-77
2023/06/04 08:04:31;;;;;;;3.60;1.80;;;26.90;48.20;;;;;;5005774;28;20048;-77
2023/06/04 08:06:57;;;;;;;2.05;1.77;;;27.10;46.90;;;;;;5006290;28;20034;-77
2023/06/04 08:09:22;;;;;;;4.38;1.90;;;27.30;45.90;;;;;;5006373;28;20091;-77
2023/06/04 08:11:48;;;;;;;2.92;2.20;;;27.30;44.90;;;;;;5000215;28;20072;-77
2023/06/04 08:14:14;;;;;;;4.38;1.83;;;27.40;45.10;;;;;;4989258;28;20037;-78
2023/06/04 08:16:40;;;;;;;4.22;2.40;;;27.50;45.00;;;;;;5019503;28;20091;-77
2023/06/04 08:19:07;;;;;;;5.55;2.22;;;27.60;45.20;;;;;;5002910;28;20040;-77
2023/06/04 08:21:33;;;;;;;4.97;1.98;;;27.60;44.60;;;;;;5004807;28;20086;-78
2023/06/04 08:23:59;;;;;;;4.28;1.85;;;27.70;44.30;;;;;;5006196;28;20068;-78
2023/06/04 08:26:26;;;;;;;3.20;1.88;;;27.80;43.70;;;;;;4988935;28;20099;-77
2023/06/04 08:28:51;;;;;;;3.58;1.92;;;27.70;44.40;;;;;;5004055;28;20465;-77
2023/06/04 08:31:17;;;;;;;3.13;1.98;;;27.90;44.70;;;;;;5019617;28;20040;-78
2023/06/04 08:33:44;;;;;;;5.68;2.00;;;28.00;44.40;;;;;;5021321;28;20030;-80
2023/06/04 08:36:10;;;;;;;2.17;1.75;;;28.20;43.80;;;;;;5018179;28;20026;-79
2023/06/04 08:38:35;;;;;;;5.47;2.10;;;28.10;44.30;;;;;;4985051;28;20083;-80
2023/06/04 08:41:30;;;;;;;2.33;2.13;;;28.40;43.90;;;;;;4987587;28;20042;-80
2023/06/04 08:43:57;;;;;;;2.80;1.60;;;28.40;42.90;;;;;;4965581;28;20500;-80
2023/06/04 08:46:23;;;;;;;7.15;2.65;;;28.50;43.70;;;;;;4983872;28;20371;-80
2023/06/04 08:48:48;;;;;;;6.63;2.75;;;28.60;43.40;;;;;;5017613;28;20103;-80
2023/06/04 08:51:15;;;;;;;4.13;2.38;;;28.80;42.40;;;;;;5020263;28;20046;-80
2023/06/04 08:53:41;;;;;;;7.93;2.80;;;28.80;42.60;;;;;;5002028;28;20033;-80
2023/06/04 08:56:07;;;;;;;3.33;2.35;;;29.10;41.90;;;;;;5021002;28;20085;-81
2023/06/04 08:58:35;;;;;;;2.95;2.63;;;29.10;42.80;;;;;;5002410;28;20119;-79
2023/06/04 09:01:01;;;;;;;3.92;2.58;;;29.20;41.70;;;;;;5002690;28;20037;-80
2023/06/04 09:03:26;;;;;;;4.10;2.13;;;29.40;40.20;;;;;;5003366;28;20033;-80
2023/06/04 09:05:52;;;;;;;5.75;2.22;;;29.30;40.50;;;;;;5020654;28;20110;-80
2023/06/04 09:08:18;;;;;;;6.57;2.67;;;29.30;41.80;;;;;;4989461;28;20037;-80
2023/06/04 09:10:46;;;;;;;3.35;2.70;;;29.40;41.10;;;;;;5019382;28;20520;-81
2023/06/04 09:13:13;;;;;;;6.70;2.78;;;29.40;41.10;;;;;;4985231;28;20044;-81
2023/06/04 09:15:38;;;;;;;6.70;3.05;;;29.50;40.90;;;;;;4988809;28;20040;-81
2023/06/04 09:18:04;;;;;;;4.13;2.33;;;29.50;40.70;;;;;;5006169;28;20045;-80
2023/06/04 09:20:29;;;;;;;5.88;3.22;;;29.60;41.00;;;;;;5018742;28;20030;-81
2023/06/04 09:22:55;;;;;;;4.40;2.50;;;29.50;41.80;;;;;;5000597;28;20034;-81
2023/06/04 09:25:27;;;;;;;7.63;2.88;;;29.90;39.70;;;;;;5006029;28;20507;-81
2023/06/04 09:27:57;;;;;;;4.88;2.53;;;30.00;39.20;;;;;;5018021;28;20038;-82
2023/06/04 09:30:23;;;;;;;5.03;2.97;;;30.00;40.50;;;;;;5021609;28;20026;-82
2023/06/04 09:32:49;;;;;;;5.80;2.70;;;30.10;39.10;;;;;;5019758;28;20125;-82
2023/06/04 09:35:16;;;;;;;5.13;2.45;;;30.20;39.00;;;;;;4986003;28;20450;-82
2023/06/04 09:37:42;;;;;;;2.70;2.15;;;30.20;37.90;;;;;;4988258;28;20030;-83
2023/06/04 09:40:08;;;;;;;3.72;1.58;;;30.20;36.30;;;;;;5002203;28;20061;-83
2023/06/04 09:42:54;;;;;;;4.75;1.88;;;30.10;36.60;;;;;;5005587;28;20021;-82
2023/06/04 09:45:33;;;;;;;6.43;2.55;;;30.00;36.60;;;;;;5006227;28;20064;-83
2023/06/04 09:47:59;;;;;;;2.22;1.65;;;30.10;36.80;;;;;;5006840;28;20489;-83
2023/06/04 09:50:26;;;;;;;1.52;1.20;;;30.10;35.80;;;;;;4991348;28;20116;-83
2023/06/04 09:52:52;;;;;;;3.85;1.65;;;30.10;35.90;;;;;;5009854;28;20037;-82
2023/06/04 09:55:19;;;;;;;6.18;2.08;;;30.00;37.00;;;;;;5025848;28;20038;-83
2023/06/04 09:57:48;;;;;;;2.85;1.70;;;30.20;37.20;;;;;;5022107;28;20533;-83
2023/06/04 10:00:16;;;;;;;6.00;1.67;;;30.50;35.10;;;;;;4992929;28;20026;-83
2023/06/04 10:02:41;;;;;;;3.22;1.60;;;30.50;35.20;;;;;;5024904;28;20030;-84
2023/06/04 10:05:08;;;;;;;3.50;1.50;;;30.50;36.80;;;;;;5025298;28;20032;-83
2023/06/04 10:07:34;;;;;;;1.55;1.40;;;30.50;36.00;;;;;;5025089;28;20043;-84
2023/06/04 10:09:59;;;;;;;3.63;1.90;;;30.40;36.40;;;;;;5007877;28;20029;-84
2023/06/04 10:12:27;;;;;;;5.88;2.88;;;30.60;35.40;;;;;;5006875;28;20104;-84
2023/06/04 10:14:54;;;;;;;5.05;1.88;;;30.80;34.80;;;;;;5009128;28;20041;-84
2023/06/04 10:17:22;;;;;;;3.53;1.77;;;30.80;34.70;;;;;;5021630;28;20038;-84
2023/06/04 10:19:47;;;;;;;2.58;1.85;;;30.80;35.60;;;;;;5007313;28;20501;-85
2023/06/04 10:22:13;;;;;;;2.95;2.00;;;30.90;35.30;;;;;;5024974;28;20025;-85
2023/06/04 10:24:39;;;;;;;4.43;2.47;;;30.90;36.10;;;;;;5006337;28;20029;-85
2023/06/04 10:27:10;;;;;;;6.88;2.20;;;31.00;36.60;;;;;;5007925;28;20041;-85
2023/06/04 10:29:36;;;;;;;2.45;1.90;;;31.00;36.00;;;;;;5024868;28;20111;-85
2023/06/04 10:32:02;;;;;;;2.20;2.00;;;31.20;35.30;;;;;;5007049;28;20108;-85
2023/06/04 10:34:27;;;;;;;3.83;2.22;;;31.30;36.50;;;;;;4991558;28;20430;-85
2023/06/04 10:36:53;;;;;;;6.85;2.22;;;31.40;36.00;;;;;;5021945;28;20117;-85
2023/06/04 10:39:34;;;;;;;5.25;2.30;;;31.40;35.20;;;;;;4989218;28;20490;-85
2023/06/04 10:42:04;;;;;;;9.35;2.30;;;31.40;35.00;;;;;;5002727;28;20330;-84
2023/06/04 10:44:44;;;;;;;5.97;2.70;;;31.60;35.10;;;;;;5008281;28;20389;-85
2023/06/04 10:47:24;;;;;;;5.72;2.10;;;31.70;34.40;;;;;;4992006;28;20022;-85
2023/06/04 10:49:54;;;;;;;6.90;2.80;;;31.70;35.20;;;;;;5021051;28;20109;-85
2023/06/04 10:52:21;;;;;;;1.98;1.77;;;31.70;34.60;;;;;;5022640;28;20038;-85
2023/06/04 10:54:48;;;;;;;5.13;2.38;;;31.70;35.30;;;;;;5005172;28;20517;-85
2023/06/04 10:57:15;;;;;;;3.13;2.33;;;32.00;34.70;;;;;;4987108;28;20516;-85
2023/06/04 10:59:41;;;;;;;5.13;2.50;;;32.10;34.20;;;;;;5005908;28;20108;-85
2023/06/04 11:02:07;;;;;;;4.60;2.10;;;32.10;34.90;;;;;;5004302;28;20105;-85
2023/06/04 11:04:33;;;;;;;2.47;2.08;;;32.10;33.80;;;;;;5006496;28;20385;-85
2023/06/04 11:07:08;;;;;;;2.35;1.65;;;32.00;34.30;;;;;;5023559;28;20117;-84
2023/06/04 11:09:37;;;;;;;3.17;2.42;;;32.20;34.40;;;;;;5007999;28;20044;-83
2023/06/04 11:12:05;;;;;;;5.85;2.20;;;32.30;34.40;;;;;;5005785;28;20033;-82
2023/06/04 11:14:30;;;;;;;1.92;1.73;;;32.40;35.60;;;;;;5025500;28;20033;-84
2023/06/04 11:16:56;;;;;;;4.13;2.17;;;32.50;34.40;;;;;;5022325;28;20440;-86
2023/06/04 11:19:22;;;;;;;1.70;1.60;;;32.70;33.40;;;;;;4990354;28;20045;-83
2023/06/04 11:21:47;;;;;;;1.95;1.58;;;32.70;32.70;;;;;;5023374;28;20091;-84
2023/06/04 11:24:13;;;;;;;5.68;1.80;;;32.70;33.10;;;;;;5005142;28;20048;-84
2023/06/04 11:26:39;;;;;;;3.47;1.70;;;33.10;34.40;;;;;;5021264;28;20026;-83
2023/06/04 11:29:11;;;;;;;2.63;1.60;;;33.00;33.70;;;;;;5006354;28;20037;-84
2023/06/04 11:31:43;;;;;;;4.40;1.90;;;33.10;33.50;;;;;;5020583;28;20030;-84
2023/06/04 11:34:09;;;;;;;3.65;1.95;;;33.10;33.70;;;;;;5007628;28;20428;-84
2023/06/04 11:36:36;;;;;;;2.15;1.90;;;33.30;33.80;;;;;;4990782;28;20036;-83
2023/06/04 11:39:02;;;;;;;3.85;1.92;;;33.50;33.60;;;;;;5022472;28;20029;-84
2023/06/04 11:41:31;;;;;;;2.38;1.80;;;33.50;32.30;;;;;;5005165;28;20041;-84
2023/06/04 11:43:57;;;;;;;5.07;2.00;;;33.60;33.20;;;;;;5021606;28;20112;-84
2023/06/04 11:46:23;;;;;;;4.80;2.05;;;33.70;32.00;;;;;;5008297;28;20160;-84
2023/06/04 11:48:51;;;;;;;4.47;1.98;;;33.70;31.30;;;;;;5004314;28;20081;-85
2023/06/04 11:51:17;;;;;;;1.60;1.45;;;33.80;32.20;;;;;;5024704;28;20037;-84
2023/06/04 11:53:42;;;;;;;2.90;1.70;;;33.70;32.30;;;;;;5024215;28;20179;-84
2023/06/04 11:56:08;;;;;;;2.38;1.70;;;33.80;31.90;;;;;;5020011;28;20033;-84
2023/06/04 11:58:33;;;;;;;7.18;2.08;;;33.70;30.00;;;;;;4989964;28;20032;-85
2023/06/04 12:00:59;;;;;;;3.78;2.22;;;33.60;30.70;;;;;;5004220;28;20025;-84
2023/06/04 12:03:54;;;;;;;3.22;1.90;;;33.60;29.90;;;;;;4988822;28;20030;-85
2023/06/04 12:06:20;;;;;;;2.78;2.05;;;33.60;31.70;;;;;;4989456;28;20029;-84
2023/06/04 12:08:47;;;;;;;3.53;2.10;;;33.80;31.70;;;;;;5003761;28;20490;-85
2023/06/04 12:11:34;;;;;;;1.98;1.77;;;33.90;32.80;;;;;;5005275;28;20030;-84
2023/06/04 12:14:06;;;;;;;4.95;2.05;;;34.00;31.90;;;;;;5004610;28;20033;-84
2023/06/04 12:16:32;;;;;;;2.28;2.08;;;34.00;32.60;;;;;;4998251;28;20033;-84
2023/06/04 12:19:11;;;;;;;3.60;2.10;;;34.10;32.60;;;;;;5018234;28;20556;-84
2023/06/04 12:21:36;;;;;;;3.65;2.13;;;34.10;32.90;;;;;;4984479;28;20037;-84
2023/06/04 12:24:09;;;;;;;2.63;2.03;;;34.10;32.00;;;;;;5008022;28;20636;-84
2023/06/04 12:26:40;;;;;;;4.07;2.20;;;34.20;30.40;;;;;;5006967;28;20501;-83
2023/06/04 12:29:16;;;;;;;5.40;2.20;;;34.20;31.00;;;;;;5003306;28;20095;-84
2023/06/04 12:31:44;;;;;;;2.60;1.98;;;34.30;31.40;;;;;;4987225;28;20033;-84
2023/06/04 12:34:10;;;;;;;3.25;2.28;;;34.30;30.50;;;;;;5003892;28;20055;-84
2023/06/04 12:36:36;;;;;;;5.65;1.63;;;34.40;31.10;;;;;;5002446;28;20517;-83
2023/06/04 12:39:03;;;;;;;2.70;1.92;;;34.40;30.10;;;;;;5004588;28;20021;-85
2023/06/04 12:41:29;;;;;;;2.63;2.03;;;34.40;31.10;;;;;;4988602;28;20112;-84
2023/06/04 12:43:55;;;;;;;1.90;1.70;;;34.40;30.30;;;;;;5004381;28;20120;-83
2023/06/04 12:46:21;;;;;;;3.13;1.50;;;34.40;31.20;;;;;;5006447;28;20481;-84